sensor_id;sensor_type;location;lat;lon;timestamp;P1;durP1;ratioP1;P2;durP2;ratioP2
73959;SDS011;62316;48.920;2.342;2022-11-12T00:02:20;40.25;;;36.25;;
73959;SDS011;62316;48.920;2.342;2022-11-12T00:04:45;49.50;;;39.75;;
73959;SDS011;62316;48.920;2.342;2022-11-12T00:07:10;43.50;;;36.50;;
73959;SDS011;62316;48.920;2.342;2022-11-12T00:09:36;39.25;;;34.00;;
73959;SDS011;62316;48.920;2.342;2022-11-12T00:12:01;42.25;;;35.00;;
73959;SDS011;62316;48.920;2.342;2022-11-12T00:14:26;36.00;;;34.00;;
73959;SDS011;62316;48.920;2.342;2022-11-12T00:16:52;37.75;;;34.75;;
73959;SDS011;62316;48.920;2.342;2022-11-12T00:19:17;34.75;;;32.50;;
73959;SDS011;62316;48.920;2.342;2022-11-12T00:21:42;35.25;;;34.00;;
73959;SDS011;62316;48.920;2.342;2022-11-12T00:24:07;42.50;;;36.00;;
73959;SDS011;62316;48.920;2.342;2022-11-12T00:26:32;39.50;;;35.00;;
73959;SDS011;62316;48.920;2.342;2022-11-12T00:28:58;35.75;;;31.25;;
73959;SDS011;62316;48.920;2.342;2022-11-12T00:31:23;39.25;;;32.75;;
73959;SDS011;62316;48.920;2.342;2022-11-12T00:33:48;44.75;;;37.25;;
73959;SDS011;62316;48.920;2.342;2022-11-12T00:36:13;37.00;;;34.25;;
73959;SDS011;62316;48.920;2.342;2022-11-12T00:38:39;39.25;;;34.00;;
73959;SDS011;62316;48.920;2.342;2022-11-12T00:41:04;42.00;;;35.75;;
73959;SDS011;62316;48.920;2.342;2022-11-12T00:43:29;38.75;;;34.00;;
73959;SDS011;62316;48.920;2.342;2022-11-12T00:45:54;39.00;;;36.25;;
73959;SDS011;62316;48.920;2.342;2022-11-12T00:48:20;41.75;;;34.00;;
73959;SDS011;62316;48.920;2.342;2022-11-12T00:50:45;41.75;;;36.00;;
73959;SDS011;62316;48.920;2.342;2022-11-12T00:53:10;41.00;;;36.00;;
73959;SDS011;62316;48.920;2.342;2022-11-12T00:55:35;38.75;;;36.00;;
73959;SDS011;62316;48.920;2.342;2022-11-12T00:58:00;42.75;;;35.75;;
73959;SDS011;62316;48.920;2.342;2022-11-12T01:00:26;45.25;;;38.75;;
73959;SDS011;62316;48.920;2.342;2022-11-12T01:02:51;50.25;;;40.00;;
73959;SDS011;62316;48.920;2.342;2022-11-12T01:05:16;51.50;;;40.00;;
73959;SDS011;62316;48.920;2.342;2022-11-12T01:07:42;47.50;;;38.50;;
73959;SDS011;62316;48.920;2.342;2022-11-12T01:10:08;46.75;;;40.25;;
73959;SDS011;62316;48.920;2.342;2022-11-12T01:12:33;44.00;;;37.25;;
73959;SDS011;62316;48.920;2.342;2022-11-12T01:14:58;46.75;;;40.00;;
73959;SDS011;62316;48.920;2.342;2022-11-12T01:17:24;51.75;;;40.75;;
73959;SDS011;62316;48.920;2.342;2022-11-12T01:19:49;48.00;;;38.00;;
73959;SDS011;62316;48.920;2.342;2022-11-12T01:22:14;51.25;;;38.25;;
73959;SDS011;62316;48.920;2.342;2022-11-12T01:24:40;52.50;;;42.75;;
73959;SDS011;62316;48.920;2.342;2022-11-12T01:27:05;40.25;;;36.75;;
73959;SDS011;62316;48.920;2.342;2022-11-12T01:29:30;41.00;;;30.00;;
73959;SDS011;62316;48.920;2.342;2022-11-12T01:31:55;43.75;;;36.25;;
73959;SDS011;62316;48.920;2.342;2022-11-12T01:34:21;46.25;;;38.00;;
73959;SDS011;62316;48.920;2.342;2022-11-12T01:36:46;38.75;;;35.75;;
73959;SDS011;62316;48.920;2.342;2022-11-12T01:39:11;42.25;;;38.00;;
73959;SDS011;62316;48.920;2.342;2022-11-12T01:41:37;38.00;;;34.50;;
73959;SDS011;62316;48.920;2.342;2022-11-12T01:46:36;42.75;;;38.25;;
73959;SDS011;62316;48.920;2.342;2022-11-12T01:49:05;40.25;;;34.75;;
73959;SDS011;62316;48.920;2.342;2022-11-12T01:51:35;36.75;;;30.50;;
73959;SDS011;62316;48.920;2.342;2022-11-12T01:54:03;13.25;;;9.00;;
73959;SDS011;62316;48.920;2.342;2022-11-12T01:56:41;34.25;;;31.00;;
73959;SDS011;62316;48.920;2.342;2022-11-12T01:59:09;38.00;;;33.75;;
73959;SDS011;62316;48.920;2.342;2022-11-12T02:01:35;34.50;;;30.25;;
73959;SDS011;62316;48.920;2.342;2022-11-12T02:04:01;36.75;;;31.50;;
73959;SDS011;62316;48.920;2.342;2022-11-12T02:06:27;34.75;;;30.75;;
73959;SDS011;62316;48.920;2.342;2022-11-12T02:08:52;32.50;;;30.75;;
73959;SDS011;62316;48.920;2.342;2022-11-12T02:11:19;30.25;;;28.50;;
73959;SDS011;62316;48.920;2.342;2022-11-12T02:13:45;34.25;;;33.00;;
73959;SDS011;62316;48.920;2.342;2022-11-12T02:16:29;42.75;;;35.50;;
73959;SDS011;62316;48.920;2.342;2022-11-12T02:18:55;38.25;;;35.50;;
73959;SDS011;62316;48.920;2.342;2022-11-12T02:21:21;40.00;;;37.00;;
73959;SDS011;62316;48.920;2.342;2022-11-12T02:23:46;40.50;;;36.25;;
73959;SDS011;62316;48.920;2.342;2022-11-12T02:26:20;54.00;;;43.00;;
73959;SDS011;62316;48.920;2.342;2022-11-12T02:28:45;55.25;;;43.75;;
73959;SDS011;62316;48.920;2.342;2022-11-12T02:31:11;55.75;;;42.75;;
73959;SDS011;62316;48.920;2.342;2022-11-12T02:33:36;50.50;;;42.50;;
73959;SDS011;62316;48.920;2.342;2022-11-12T02:36:01;55.25;;;42.50;;
73959;SDS011;62316;48.920;2.342;2022-11-12T02:38:26;54.75;;;43.25;;
73959;SDS011;62316;48.920;2.342;2022-11-12T02:40:51;55.25;;;45.75;;
73959;SDS011;62316;48.920;2.342;2022-11-12T02:43:17;51.00;;;42.75;;
73959;SDS011;62316;48.920;2.342;2022-11-12T02:45:42;52.50;;;42.00;;
73959;SDS011;62316;48.920;2.342;2022-11-12T02:48:07;54.00;;;45.75;;
73959;SDS011;62316;48.920;2.342;2022-11-12T02:50:32;53.50;;;45.50;;
73959;SDS011;62316;48.920;2.342;2022-11-12T02:52:58;42.00;;;34.25;;
73959;SDS011;62316;48.920;2.342;2022-11-12T02:55:23;48.25;;;42.00;;
73959;SDS011;62316;48.920;2.342;2022-11-12T02:57:48;37.25;;;34.75;;
73959;SDS011;62316;48.920;2.342;2022-11-12T03:00:13;43.00;;;38.25;;
73959;SDS011;62316;48.920;2.342;2022-11-12T03:02:39;42.00;;;37.25;;
73959;SDS011;62316;48.920;2.342;2022-11-12T03:05:08;38.75;;;34.50;;
73959;SDS011;62316;48.920;2.342;2022-11-12T03:07:34;37.25;;;33.75;;
73959;SDS011;62316;48.920;2.342;2022-11-12T03:09:59;38.00;;;35.00;;
73959;SDS011;62316;48.920;2.342;2022-11-12T03:12:24;35.25;;;34.00;;
73959;SDS011;62316;48.920;2.342;2022-11-12T03:14:49;20.00;;;20.00;;
73959;SDS011;62316;48.920;2.342;2022-11-12T03:17:15;33.50;;;28.25;;
73959;SDS011;62316;48.920;2.342;2022-11-12T03:19:40;42.75;;;31.25;;
73959;SDS011;62316;48.920;2.342;2022-11-12T03:22:05;29.50;;;25.75;;
73959;SDS011;62316;48.920;2.342;2022-11-12T03:24:30;31.25;;;28.00;;
73959;SDS011;62316;48.920;2.342;2022-11-12T03:26:55;32.00;;;27.75;;
73959;SDS011;62316;48.920;2.342;2022-11-12T03:29:21;37.00;;;30.75;;
73959;SDS011;62316;48.920;2.342;2022-11-12T03:31:46;28.75;;;25.75;;
73959;SDS011;62316;48.920;2.342;2022-11-12T03:34:11;30.00;;;27.75;;
73959;SDS011;62316;48.920;2.342;2022-11-12T03:36:36;32.25;;;30.75;;
73959;SDS011;62316;48.920;2.342;2022-11-12T03:39:02;32.00;;;28.25;;
73959;SDS011;62316;48.920;2.342;2022-11-12T03:41:27;29.75;;;25.50;;
73959;SDS011;62316;48.920;2.342;2022-11-12T03:43:52;27.00;;;23.75;;
73959;SDS011;62316;48.920;2.342;2022-11-12T03:46:17;33.50;;;29.25;;
73959;SDS011;62316;48.920;2.342;2022-11-12T03:48:43;26.00;;;23.25;;
73959;SDS011;62316;48.920;2.342;2022-11-12T03:51:08;31.25;;;26.50;;
73959;SDS011;62316;48.920;2.342;2022-11-12T03:53:33;30.00;;;28.25;;
73959;SDS011;62316;48.920;2.342;2022-11-12T03:55:59;30.25;;;27.75;;
73959;SDS011;62316;48.920;2.342;2022-11-12T03:58:24;28.75;;;24.75;;
73959;SDS011;62316;48.920;2.342;2022-11-12T04:00:49;27.75;;;25.50;;
73959;SDS011;62316;48.920;2.342;2022-11-12T04:03:15;26.75;;;23.50;;
73959;SDS011;62316;48.920;2.342;2022-11-12T04:05:40;22.25;;;19.00;;
73959;SDS011;62316;48.920;2.342;2022-11-12T04:08:24;25.25;;;22.00;;
73959;SDS011;62316;48.920;2.342;2022-11-12T04:11:03;26.25;;;24.50;;
73959;SDS011;62316;48.920;2.342;2022-11-12T04:13:29;26.50;;;22.50;;
73959;SDS011;62316;48.920;2.342;2022-11-12T04:15:58;26.25;;;24.25;;
73959;SDS011;62316;48.920;2.342;2022-11-12T04:18:43;24.00;;;22.00;;
73959;SDS011;62316;48.920;2.342;2022-11-12T04:21:29;20.00;;;20.00;;
73959;SDS011;62316;48.920;2.342;2022-11-12T04:24:13;25.50;;;23.00;;
73959;SDS011;62316;48.920;2.342;2022-11-12T04:26:59;25.50;;;24.50;;
73959;SDS011;62316;48.920;2.342;2022-11-12T04:29:24;20.00;;;19.25;;
73959;SDS011;62316;48.920;2.342;2022-11-12T04:32:08;23.50;;;20.00;;
73959;SDS011;62316;48.920;2.342;2022-11-12T04:34:34;25.25;;;23.25;;
73959;SDS011;62316;48.920;2.342;2022-11-12T04:37:00;28.75;;;24.75;;
73959;SDS011;62316;48.920;2.342;2022-11-12T04:39:25;28.25;;;23.25;;
73959;SDS011;62316;48.920;2.342;2022-11-12T04:41:51;23.33;;;21.00;;
73959;SDS011;62316;48.920;2.342;2022-11-12T04:44:34;26.00;;;21.75;;
73959;SDS011;62316;48.920;2.342;2022-11-12T04:47:18;22.50;;;21.25;;
73959;SDS011;62316;48.920;2.342;2022-11-12T04:49:44;25.00;;;19.00;;
73959;SDS011;62316;48.920;2.342;2022-11-12T04:52:09;21.75;;;21.75;;
73959;SDS011;62316;48.920;2.342;2022-11-12T04:54:34;29.50;;;23.75;;
73959;SDS011;62316;48.920;2.342;2022-11-12T04:56:59;26.00;;;21.75;;
73959;SDS011;62316;48.920;2.342;2022-11-12T04:59:25;21.00;;;17.25;;
73959;SDS011;62316;48.920;2.342;2022-11-12T05:01:50;24.50;;;22.00;;
73959;SDS011;62316;48.920;2.342;2022-11-12T05:04:15;22.50;;;20.00;;
73959;SDS011;62316;48.920;2.342;2022-11-12T05:06:41;17.25;;;16.75;;
73959;SDS011;62316;48.920;2.342;2022-11-12T05:09:15;17.25;;;17.25;;
73959;SDS011;62316;48.920;2.342;2022-11-12T05:11:40;20.00;;;17.75;;
73959;SDS011;62316;48.920;2.342;2022-11-12T05:14:05;23.25;;;21.75;;
73959;SDS011;62316;48.920;2.342;2022-11-12T05:16:31;23.75;;;21.00;;
73959;SDS011;62316;48.920;2.342;2022-11-12T05:18:56;26.50;;;22.25;;
73959;SDS011;62316;48.920;2.342;2022-11-12T05:21:21;22.75;;;22.75;;
73959;SDS011;62316;48.920;2.342;2022-11-12T05:24:05;27.00;;;23.25;;
73959;SDS011;62316;48.920;2.342;2022-11-12T05:26:30;20.00;;;18.25;;
73959;SDS011;62316;48.920;2.342;2022-11-12T05:28:56;15.25;;;12.50;;
73959;SDS011;62316;48.920;2.342;2022-11-12T05:31:21;22.25;;;20.50;;
73959;SDS011;62316;48.920;2.342;2022-11-12T05:33:46;24.25;;;19.00;;
73959;SDS011;62316;48.920;2.342;2022-11-12T05:36:11;23.75;;;22.75;;
73959;SDS011;62316;48.920;2.342;2022-11-12T05:38:37;22.50;;;19.00;;
73959;SDS011;62316;48.920;2.342;2022-11-12T05:41:03;26.00;;;24.00;;
73959;SDS011;62316;48.920;2.342;2022-11-12T05:43:28;20.67;;;20.33;;
73959;SDS011;62316;48.920;2.342;2022-11-12T05:45:53;23.00;;;20.00;;
73959;SDS011;62316;48.920;2.342;2022-11-12T05:48:18;26.00;;;23.50;;
73959;SDS011;62316;48.920;2.342;2022-11-12T05:50:44;26.00;;;23.25;;
73959;SDS011;62316;48.920;2.342;2022-11-12T05:53:09;21.50;;;21.50;;
73959;SDS011;62316;48.920;2.342;2022-11-12T05:55:34;22.25;;;21.25;;
73959;SDS011;62316;48.920;2.342;2022-11-12T05:58:03;29.75;;;24.50;;
73959;SDS011;62316;48.920;2.342;2022-11-12T06:00:28;27.50;;;24.50;;
73959;SDS011;62316;48.920;2.342;2022-11-12T06:02:55;21.75;;;21.75;;
73959;SDS011;62316;48.920;2.342;2022-11-12T06:05:21;28.50;;;23.50;;
73959;SDS011;62316;48.920;2.342;2022-11-12T06:07:46;23.75;;;23.75;;
73959;SDS011;62316;48.920;2.342;2022-11-12T06:10:11;23.50;;;22.25;;
73959;SDS011;62316;48.920;2.342;2022-11-12T06:12:37;32.00;;;29.25;;
73959;SDS011;62316;48.920;2.342;2022-11-12T06:15:02;35.25;;;31.75;;
73959;SDS011;62316;48.920;2.342;2022-11-12T06:17:28;23.00;;;20.00;;
73959;SDS011;62316;48.920;2.342;2022-11-12T06:19:53;31.00;;;27.75;;
73959;SDS011;62316;48.920;2.342;2022-11-12T06:22:18;22.25;;;21.25;;
73959;SDS011;62316;48.920;2.342;2022-11-12T06:24:43;23.25;;;23.00;;
73959;SDS011;62316;48.920;2.342;2022-11-12T06:27:08;26.25;;;20.00;;
73959;SDS011;62316;48.920;2.342;2022-11-12T06:29:34;22.75;;;19.50;;
73959;SDS011;62316;48.920;2.342;2022-11-12T06:31:59;23.75;;;19.00;;
73959;SDS011;62316;48.920;2.342;2022-11-12T06:34:24;21.00;;;20.00;;
73959;SDS011;62316;48.920;2.342;2022-11-12T06:36:49;23.00;;;20.25;;
73959;SDS011;62316;48.920;2.342;2022-11-12T06:39:15;22.75;;;19.25;;
73959;SDS011;62316;48.920;2.342;2022-11-12T06:41:40;22.75;;;22.50;;
73959;SDS011;62316;48.920;2.342;2022-11-12T06:44:05;21.25;;;20.00;;
73959;SDS011;62316;48.920;2.342;2022-11-12T06:46:30;30.00;;;22.00;;
73959;SDS011;62316;48.920;2.342;2022-11-12T06:48:56;20.50;;;17.50;;
73959;SDS011;62316;48.920;2.342;2022-11-12T06:51:21;27.50;;;23.00;;
73959;SDS011;62316;48.920;2.342;2022-11-12T06:53:46;20.00;;;18.75;;
73959;SDS011;62316;48.920;2.342;2022-11-12T06:56:12;19.00;;;17.75;;
73959;SDS011;62316;48.920;2.342;2022-11-12T06:58:37;27.25;;;22.50;;
73959;SDS011;62316;48.920;2.342;2022-11-12T07:01:04;29.50;;;28.00;;
73959;SDS011;62316;48.920;2.342;2022-11-12T07:03:29;28.25;;;27.75;;
73959;SDS011;62316;48.920;2.342;2022-11-12T07:05:54;27.00;;;25.75;;
73959;SDS011;62316;48.920;2.342;2022-11-12T07:08:19;23.75;;;22.25;;
73959;SDS011;62316;48.920;2.342;2022-11-12T07:10:45;22.25;;;21.00;;
73959;SDS011;62316;48.920;2.342;2022-11-12T07:13:10;18.25;;;16.00;;
73959;SDS011;62316;48.920;2.342;2022-11-12T07:15:36;23.50;;;19.75;;
73959;SDS011;62316;48.920;2.342;2022-11-12T07:18:01;20.75;;;17.00;;
73959;SDS011;62316;48.920;2.342;2022-11-12T07:20:26;23.75;;;21.25;;
73959;SDS011;62316;48.920;2.342;2022-11-12T07:22:52;24.50;;;18.75;;
73959;SDS011;62316;48.920;2.342;2022-11-12T07:25:17;20.75;;;20.75;;
73959;SDS011;62316;48.920;2.342;2022-11-12T07:27:42;21.50;;;21.00;;
73959;SDS011;62316;48.920;2.342;2022-11-12T07:30:08;23.25;;;20.75;;
73959;SDS011;62316;48.920;2.342;2022-11-12T07:32:33;22.00;;;18.75;;
73959;SDS011;62316;48.920;2.342;2022-11-12T07:34:58;22.25;;;20.75;;
73959;SDS011;62316;48.920;2.342;2022-11-12T07:37:23;26.75;;;20.50;;
73959;SDS011;62316;48.920;2.342;2022-11-12T07:39:48;23.00;;;21.00;;
73959;SDS011;62316;48.920;2.342;2022-11-12T07:42:14;31.50;;;24.00;;
73959;SDS011;62316;48.920;2.342;2022-11-12T07:44:39;29.75;;;25.50;;
73959;SDS011;62316;48.920;2.342;2022-11-12T07:47:05;22.75;;;21.50;;
73959;SDS011;62316;48.920;2.342;2022-11-12T07:49:30;23.75;;;21.00;;
73959;SDS011;62316;48.920;2.342;2022-11-12T07:51:55;23.50;;;20.50;;
73959;SDS011;62316;48.920;2.342;2022-11-12T07:54:21;28.00;;;22.25;;
73959;SDS011;62316;48.920;2.342;2022-11-12T07:56:46;19.50;;;17.50;;
73959;SDS011;62316;48.920;2.342;2022-11-12T07:59:11;24.50;;;24.50;;
73959;SDS011;62316;48.920;2.342;2022-11-12T08:01:37;24.75;;;23.00;;
73959;SDS011;62316;48.920;2.342;2022-11-12T08:04:04;26.00;;;22.00;;
73959;SDS011;62316;48.920;2.342;2022-11-12T08:06:31;28.50;;;21.50;;
73959;SDS011;62316;48.920;2.342;2022-11-12T08:08:57;22.25;;;19.50;;
73959;SDS011;62316;48.920;2.342;2022-11-12T08:11:23;20.25;;;20.25;;
73959;SDS011;62316;48.920;2.342;2022-11-12T08:13:49;19.50;;;16.50;;
73959;SDS011;62316;48.920;2.342;2022-11-12T08:16:14;17.75;;;16.00;;
73959;SDS011;62316;48.920;2.342;2022-11-12T08:18:39;23.00;;;21.50;;
73959;SDS011;62316;48.920;2.342;2022-11-12T08:21:05;27.50;;;22.00;;
73959;SDS011;62316;48.920;2.342;2022-11-12T08:23:31;24.50;;;20.50;;
73959;SDS011;62316;48.920;2.342;2022-11-12T08:25:57;25.50;;;21.50;;
73959;SDS011;62316;48.920;2.342;2022-11-12T08:28:23;21.00;;;19.75;;
73959;SDS011;62316;48.920;2.342;2022-11-12T08:30:48;18.25;;;17.00;;
73959;SDS011;62316;48.920;2.342;2022-11-12T08:33:13;32.00;;;24.75;;
73959;SDS011;62316;48.920;2.342;2022-11-12T08:35:39;23.00;;;21.50;;
73959;SDS011;62316;48.920;2.342;2022-11-12T08:38:04;37.50;;;31.25;;
73959;SDS011;62316;48.920;2.342;2022-11-12T08:40:32;28.25;;;26.50;;
73959;SDS011;62316;48.920;2.342;2022-11-12T08:42:58;26.25;;;25.00;;
73959;SDS011;62316;48.920;2.342;2022-11-12T08:45:24;27.75;;;23.50;;
73959;SDS011;62316;48.920;2.342;2022-11-12T08:47:49;31.00;;;25.25;;
73959;SDS011;62316;48.920;2.342;2022-11-12T08:50:14;31.75;;;27.75;;
73959;SDS011;62316;48.920;2.342;2022-11-12T08:52:40;21.25;;;20.75;;
73959;SDS011;62316;48.920;2.342;2022-11-12T08:55:05;28.00;;;24.00;;
73959;SDS011;62316;48.920;2.342;2022-11-12T08:57:30;24.00;;;22.75;;
73959;SDS011;62316;48.920;2.342;2022-11-12T08:59:56;28.00;;;23.25;;
73959;SDS011;62316;48.920;2.342;2022-11-12T09:02:21;29.50;;;28.25;;
73959;SDS011;62316;48.920;2.342;2022-11-12T09:04:46;21.25;;;20.00;;
73959;SDS011;62316;48.920;2.342;2022-11-12T09:07:11;24.75;;;24.75;;
73959;SDS011;62316;48.920;2.342;2022-11-12T09:09:36;31.25;;;30.25;;
73959;SDS011;62316;48.920;2.342;2022-11-12T09:12:02;25.50;;;21.00;;
73959;SDS011;62316;48.920;2.342;2022-11-12T09:14:27;25.25;;;21.75;;
73959;SDS011;62316;48.920;2.342;2022-11-12T09:16:52;31.00;;;29.00;;
73959;SDS011;62316;48.920;2.342;2022-11-12T09:19:18;28.75;;;25.25;;
73959;SDS011;62316;48.920;2.342;2022-11-12T09:21:43;28.50;;;23.25;;
73959;SDS011;62316;48.920;2.342;2022-11-12T09:24:09;30.75;;;28.00;;
73959;SDS011;62316;48.920;2.342;2022-11-12T09:26:34;25.50;;;24.50;;
73959;SDS011;62316;48.920;2.342;2022-11-12T09:28:59;30.00;;;27.75;;
73959;SDS011;62316;48.920;2.342;2022-11-12T09:31:25;29.75;;;27.00;;
73959;SDS011;62316;48.920;2.342;2022-11-12T09:33:50;31.50;;;28.00;;
73959;SDS011;62316;48.920;2.342;2022-11-12T09:36:15;27.50;;;25.75;;
73959;SDS011;62316;48.920;2.342;2022-11-12T09:38:41;34.00;;;30.00;;
73959;SDS011;62316;48.920;2.342;2022-11-12T09:41:13;32.50;;;29.00;;
73959;SDS011;62316;48.920;2.342;2022-11-12T09:46:14;34.25;;;31.25;;
73959;SDS011;62316;48.920;2.342;2022-11-12T09:48:43;31.75;;;28.25;;
73959;SDS011;62316;48.920;2.342;2022-11-12T09:51:13;33.00;;;29.25;;
73959;SDS011;62316;48.920;2.342;2022-11-12T09:53:56;36.50;;;30.25;;
73959;SDS011;62316;48.920;2.342;2022-11-12T09:56:23;33.25;;;31.00;;
73959;SDS011;62316;48.920;2.342;2022-11-12T09:58:48;29.00;;;27.75;;
73959;SDS011;62316;48.920;2.342;2022-11-12T10:01:18;34.50;;;32.25;;
73959;SDS011;62316;48.920;2.342;2022-11-12T10:03:51;42.25;;;39.00;;
73959;SDS011;62316;48.920;2.342;2022-11-12T10:06:21;37.25;;;34.00;;
73959;SDS011;62316;48.920;2.342;2022-11-12T10:09:09;26.75;;;24.75;;
73959;SDS011;62316;48.920;2.342;2022-11-12T10:14:37;38.00;;;31.50;;
73959;SDS011;62316;48.920;2.342;2022-11-12T10:17:26;34.25;;;28.25;;
73959;SDS011;62316;48.920;2.342;2022-11-12T10:23:03;29.50;;;28.25;;
73959;SDS011;62316;48.920;2.342;2022-11-12T10:25:30;23.00;;;19.50;;
73959;SDS011;62316;48.920;2.342;2022-11-12T10:27:56;26.50;;;23.00;;
73959;SDS011;62316;48.920;2.342;2022-11-12T10:30:22;28.50;;;27.00;;
73959;SDS011;62316;48.920;2.342;2022-11-12T10:32:51;28.00;;;23.00;;
73959;SDS011;62316;48.920;2.342;2022-11-12T10:35:17;29.50;;;25.25;;
73959;SDS011;62316;48.920;2.342;2022-11-12T10:37:50;27.50;;;27.50;;
73959;SDS011;62316;48.920;2.342;2022-11-12T10:45:23;23.75;;;23.75;;
73959;SDS011;62316;48.920;2.342;2022-11-12T10:47:49;36.25;;;30.00;;
73959;SDS011;62316;48.920;2.342;2022-11-12T10:50:19;35.75;;;24.50;;
73959;SDS011;62316;48.920;2.342;2022-11-12T10:52:52;26.25;;;24.25;;
73959;SDS011;62316;48.920;2.342;2022-11-12T10:55:22;29.25;;;26.00;;
73959;SDS011;62316;48.920;2.342;2022-11-12T10:58:04;29.00;;;23.75;;
73959;SDS011;62316;48.920;2.342;2022-11-12T11:00:29;25.75;;;23.50;;
73959;SDS011;62316;48.920;2.342;2022-11-12T11:02:54;33.75;;;31.50;;
73959;SDS011;62316;48.920;2.342;2022-11-12T11:05:26;37.00;;;31.50;;
73959;SDS011;62316;48.920;2.342;2022-11-12T11:07:53;38.00;;;32.75;;
73959;SDS011;62316;48.920;2.342;2022-11-12T11:10:24;33.75;;;30.00;;
73959;SDS011;62316;48.920;2.342;2022-11-12T11:12:50;41.25;;;33.50;;
73959;SDS011;62316;48.920;2.342;2022-11-12T11:15:32;50.50;;;39.00;;
73959;SDS011;62316;48.920;2.342;2022-11-12T11:17:57;38.50;;;33.75;;
73959;SDS011;62316;48.920;2.342;2022-11-12T11:20:23;40.50;;;36.00;;
73959;SDS011;62316;48.920;2.342;2022-11-12T11:22:52;34.75;;;30.75;;
73959;SDS011;62316;48.920;2.342;2022-11-12T11:25:22;26.50;;;25.00;;
73959;SDS011;62316;48.920;2.342;2022-11-12T11:30:20;36.50;;;34.25;;
73959;SDS011;62316;48.920;2.342;2022-11-12T11:40:40;34.00;;;32.25;;
73959;SDS011;62316;48.920;2.342;2022-11-12T11:48:36;38.25;;;34.25;;
73959;SDS011;62316;48.920;2.342;2022-11-12T11:51:09;41.75;;;34.00;;
73959;SDS011;62316;48.920;2.342;2022-11-12T11:56:22;33.25;;;30.25;;
73959;SDS011;62316;48.920;2.342;2022-11-12T12:01:30;37.00;;;33.00;;
73959;SDS011;62316;48.920;2.342;2022-11-12T12:04:14;33.75;;;30.25;;
73959;SDS011;62316;48.920;2.342;2022-11-12T12:06:47;39.75;;;32.00;;
73959;SDS011;62316;48.920;2.342;2022-11-12T12:16:59;33.75;;;32.25;;
73959;SDS011;62316;48.920;2.342;2022-11-12T12:19:35;31.50;;;30.50;;
73959;SDS011;62316;48.920;2.342;2022-11-12T12:22:04;37.75;;;32.25;;
73959;SDS011;62316;48.920;2.342;2022-11-12T12:24:40;38.50;;;34.00;;
73959;SDS011;62316;48.920;2.342;2022-11-12T12:32:09;33.00;;;29.50;;
73959;SDS011;62316;48.920;2.342;2022-11-12T12:34:42;40.75;;;35.25;;
73959;SDS011;62316;48.920;2.342;2022-11-12T12:37:19;45.50;;;38.00;;
73959;SDS011;62316;48.920;2.342;2022-11-12T12:42:36;37.25;;;33.75;;
73959;SDS011;62316;48.920;2.342;2022-11-12T12:45:30;50.25;;;39.50;;
73959;SDS011;62316;48.920;2.342;2022-11-12T12:47:51;40.75;;;36.00;;
73959;SDS011;62316;48.920;2.342;2022-11-12T12:50:17;39.00;;;34.75;;
73959;SDS011;62316;48.920;2.342;2022-11-12T12:53:01;44.00;;;36.50;;
73959;SDS011;62316;48.920;2.342;2022-11-12T12:55:37;42.25;;;35.50;;
73959;SDS011;62316;48.920;2.342;2022-11-12T12:58:03;47.50;;;38.75;;
73959;SDS011;62316;48.920;2.342;2022-11-12T13:02:56;46.25;;;39.50;;
73959;SDS011;62316;48.920;2.342;2022-11-12T13:05:32;46.00;;;39.50;;
73959;SDS011;62316;48.920;2.342;2022-11-12T13:07:59;43.00;;;34.75;;
73959;SDS011;62316;48.920;2.342;2022-11-12T13:13:01;46.25;;;39.00;;
73959;SDS011;62316;48.920;2.342;2022-11-12T13:15:39;30.00;;;28.25;;
73959;SDS011;62316;48.920;2.342;2022-11-12T13:18:06;46.00;;;38.25;;
73959;SDS011;62316;48.920;2.342;2022-11-12T13:20:36;50.25;;;37.00;;
73959;SDS011;62316;48.920;2.342;2022-11-12T13:23:02;41.00;;;34.75;;
73959;SDS011;62316;48.920;2.342;2022-11-12T13:25:30;41.00;;;34.50;;
73959;SDS011;62316;48.920;2.342;2022-11-12T13:32:52;43.00;;;35.25;;
73959;SDS011;62316;48.920;2.342;2022-11-12T13:38:03;38.25;;;34.00;;
73959;SDS011;62316;48.920;2.342;2022-11-12T13:40:48;38.00;;;34.00;;
73959;SDS011;62316;48.920;2.342;2022-11-12T13:45:41;39.25;;;35.00;;
73959;SDS011;62316;48.920;2.342;2022-11-12T13:48:11;43.50;;;35.25;;
73959;SDS011;62316;48.920;2.342;2022-11-12T13:50:38;35.00;;;33.00;;
73959;SDS011;62316;48.920;2.342;2022-11-12T13:53:06;35.75;;;34.50;;
73959;SDS011;62316;48.920;2.342;2022-11-12T13:55:31;41.00;;;34.25;;
73959;SDS011;62316;48.920;2.342;2022-11-12T13:57:57;37.00;;;33.75;;
73959;SDS011;62316;48.920;2.342;2022-11-12T14:00:25;40.25;;;34.75;;
73959;SDS011;62316;48.920;2.342;2022-11-12T14:02:55;36.25;;;32.25;;
73959;SDS011;62316;48.920;2.342;2022-11-12T14:05:23;47.25;;;32.50;;
73959;SDS011;62316;48.920;2.342;2022-11-12T14:10:36;33.75;;;31.75;;
73959;SDS011;62316;48.920;2.342;2022-11-12T14:20:35;43.25;;;33.50;;
73959;SDS011;62316;48.920;2.342;2022-11-12T14:23:23;34.25;;;30.00;;
73959;SDS011;62316;48.920;2.342;2022-11-12T14:25:49;37.00;;;30.25;;
73959;SDS011;62316;48.920;2.342;2022-11-12T14:28:36;38.50;;;33.75;;
73959;SDS011;62316;48.920;2.342;2022-11-12T14:31:01;35.50;;;30.75;;
73959;SDS011;62316;48.920;2.342;2022-11-12T14:33:27;44.25;;;35.00;;
73959;SDS011;62316;48.920;2.342;2022-11-12T14:35:54;41.00;;;34.25;;
73959;SDS011;62316;48.920;2.342;2022-11-12T14:38:28;33.75;;;28.25;;
73959;SDS011;62316;48.920;2.342;2022-11-12T14:41:06;36.75;;;30.50;;
73959;SDS011;62316;48.920;2.342;2022-11-12T14:46:01;28.50;;;27.25;;
73959;SDS011;62316;48.920;2.342;2022-11-12T14:48:27;25.75;;;25.75;;
73959;SDS011;62316;48.920;2.342;2022-11-12T14:50:54;31.75;;;27.25;;
73959;SDS011;62316;48.920;2.342;2022-11-12T14:53:22;36.00;;;30.75;;
73959;SDS011;62316;48.920;2.342;2022-11-12T14:55:50;41.00;;;33.00;;
73959;SDS011;62316;48.920;2.342;2022-11-12T14:58:17;32.75;;;30.00;;
73959;SDS011;62316;48.920;2.342;2022-11-12T15:00:44;23.75;;;21.75;;
73959;SDS011;62316;48.920;2.342;2022-11-12T15:03:17;32.00;;;23.75;;
73959;SDS011;62316;48.920;2.342;2022-11-12T15:05:53;33.00;;;28.75;;
73959;SDS011;62316;48.920;2.342;2022-11-12T15:08:35;27.75;;;24.50;;
73959;SDS011;62316;48.920;2.342;2022-11-12T15:13:44;27.50;;;24.00;;
73959;SDS011;62316;48.920;2.342;2022-11-12T15:16:10;33.00;;;26.00;;
73959;SDS011;62316;48.920;2.342;2022-11-12T15:18:40;31.75;;;31.00;;
73959;SDS011;62316;48.920;2.342;2022-11-12T15:23:30;26.75;;;25.00;;
73959;SDS011;62316;48.920;2.342;2022-11-12T15:25:59;28.00;;;24.25;;
73959;SDS011;62316;48.920;2.342;2022-11-12T15:28:25;32.25;;;28.00;;
73959;SDS011;62316;48.920;2.342;2022-11-12T15:31:01;27.67;;;27.67;;
73959;SDS011;62316;48.920;2.342;2022-11-12T15:33:29;32.75;;;26.50;;
73959;SDS011;62316;48.920;2.342;2022-11-12T15:35:55;30.75;;;29.00;;
73959;SDS011;62316;48.920;2.342;2022-11-12T15:38:23;28.50;;;25.25;;
73959;SDS011;62316;48.920;2.342;2022-11-12T15:40:53;30.25;;;27.25;;
73959;SDS011;62316;48.920;2.342;2022-11-12T15:43:23;30.50;;;28.75;;
73959;SDS011;62316;48.920;2.342;2022-11-12T15:45:49;32.50;;;29.00;;
73959;SDS011;62316;48.920;2.342;2022-11-12T15:48:15;31.75;;;26.75;;
73959;SDS011;62316;48.920;2.342;2022-11-12T15:50:41;24.67;;;23.00;;